createdAt,value
2022-08-09T00:01:15.556Z,3.67
2022-08-09T00:04:10.568Z,3.90
2022-08-09T00:07:10.827Z,3.78
2022-08-09T00:09:57.087Z,3.95
2022-08-09T00:12:43.334Z,3.90
2022-08-09T00:15:57.453Z,3.80
2022-08-09T00:18:38.622Z,3.58
2022-08-09T00:21:24.719Z,3.95
2022-08-09T00:24:11.060Z,3.78
2022-08-09T00:27:01.863Z,4.25
2022-08-09T00:30:23.609Z,4.00
2022-08-09T00:32:54.684Z,3.65
2022-08-09T00:35:42.786Z,4.63
2022-08-09T00:38:29.326Z,3.78
2022-08-09T00:44:14.580Z,3.90
2022-08-09T00:44:27.192Z,3.63
2022-08-09T00:47:15.693Z,3.83
2022-08-09T00:50:01.771Z,4.40
2022-08-09T00:52:47.404Z,4.45
2022-08-09T00:56:05.708Z,4.72
2022-08-09T00:58:41.597Z,5.00
2022-08-09T01:01:44.818Z,5.70
2022-08-09T01:04:34.021Z,5.97
2022-08-09T01:07:37.670Z,6.25
2022-08-09T01:11:08.386Z,7.10
2022-08-09T01:14:08.136Z,5.90
2022-08-09T01:17:19.326Z,6.30
2022-08-09T01:20:21.771Z,5.32
2022-08-09T01:24:01.869Z,5.63
2022-08-09T01:27:08.864Z,6.25
2022-08-09T01:30:04.588Z,5.80
2022-08-09T01:32:52.477Z,6.05
2022-08-09T01:36:03.208Z,5.97
2022-08-09T01:38:51.626Z,5.28
2022-08-09T01:42:01.276Z,5.07
2022-08-09T01:44:48.654Z,5.35
2022-08-09T01:47:44.836Z,5.18
2022-08-09T01:50:36.594Z,5.22
2022-08-09T01:53:23.888Z,5.32
2022-08-09T01:56:15.848Z,4.93
2022-08-09T01:59:07.763Z,5.07
2022-08-09T02:01:59.259Z,4.95
2022-08-09T02:04:47.080Z,4.95
2022-08-09T02:08:39.436Z,4.90
2022-08-09T02:10:51.554Z,5.15
2022-08-09T02:13:40.393Z,5.18
2022-08-09T02:16:33.949Z,5.00
2022-08-09T02:19:39.166Z,4.43
2022-08-09T02:22:38.150Z,4.30
2022-08-09T02:25:28.034Z,4.32
2022-08-09T02:28:18.896Z,4.45
2022-08-09T02:31:26.112Z,4.20
2022-08-09T02:34:40.820Z,4.50
2022-08-09T02:37:31.433Z,4.43
2022-08-09T02:40:26.804Z,4.22
2022-08-09T02:43:18.599Z,4.43
2022-08-09T02:46:10.554Z,4.38
2022-08-09T02:49:05.109Z,4.80
2022-08-09T02:51:57.061Z,4.18
2022-08-09T02:54:53.870Z,4.20
2022-08-09T02:57:59.749Z,4.10
2022-08-09T03:00:58.155Z,4.25
2022-08-09T03:04:17.449Z,4.03
2022-08-09T03:06:53.062Z,4.10
2022-08-09T03:09:42.959Z,3.65
2022-08-09T03:12:29.853Z,4.25
2022-08-09T03:15:16.437Z,4.00
2022-08-09T03:18:03.613Z,4.65
2022-08-09T03:20:57.569Z,4.40
2022-08-09T03:24:04.389Z,4.50
2022-08-09T03:26:51.800Z,5.20
2022-08-09T03:29:43.161Z,4.72
2022-08-09T03:32:45.720Z,4.60
2022-08-09T03:36:11.584Z,4.90
2022-08-09T03:38:41.881Z,4.72
2022-08-09T03:41:30.123Z,4.85
2022-08-09T03:44:32.077Z,4.97
2022-08-09T03:47:17.593Z,5.40
2022-08-09T03:50:06.248Z,5.57
2022-08-09T03:52:56.167Z,5.43
2022-08-09T03:55:44.133Z,5.25
2022-08-09T03:58:30.760Z,5.93
2022-08-09T04:01:17.248Z,5.57
2022-08-09T04:04:09.922Z,5.43
2022-08-09T04:07:00.766Z,5.32
2022-08-09T04:09:50.152Z,5.97
2022-08-09T04:12:53.623Z,5.95
2022-08-09T04:16:17.623Z,5.95
2022-08-09T04:18:46.196Z,5.60
2022-08-09T04:21:38.537Z,5.63
2022-08-09T04:24:27.063Z,5.60
2022-08-09T04:27:13.401Z,5.78
2022-08-09T04:30:00.323Z,5.30
2022-08-09T04:32:48.401Z,5.38
2022-08-09T04:35:34.458Z,5.30
2022-08-09T04:38:20.904Z,5.15
2022-08-09T04:41:09.803Z,5.18
2022-08-09T04:44:07.349Z,5.00
2022-08-09T04:47:05.997Z,5.40
2022-08-09T04:49:55.682Z,5.25
2022-08-09T04:52:42.157Z,5.57
2022-08-09T04:55:28.396Z,5.40
2022-08-09T04:58:29.849Z,5.32
2022-08-09T05:01:18.762Z,5.10
2022-08-09T05:04:04.704Z,5.13
2022-08-09T05:06:50.776Z,6.35
2022-08-09T05:09:42.142Z,5.88
2022-08-09T05:12:33.023Z,5.88
2022-08-09T05:15:24.571Z,5.40
2022-08-09T05:18:50.488Z,6.35
2022-08-09T05:21:46.593Z,6.07
2022-08-09T05:24:33.873Z,5.50
2022-08-09T05:27:19.337Z,5.43
2022-08-09T05:30:06.153Z,6.13
2022-08-09T05:32:53.921Z,6.47
2022-08-09T05:35:49.933Z,7.57
2022-08-09T05:38:39.274Z,7.05
2022-08-09T05:41:24.913Z,7.68
2022-08-09T05:44:11.103Z,7.65
2022-08-09T05:46:57.132Z,6.93
2022-08-09T05:50:25.804Z,7.93
2022-08-09T05:52:53.787Z,7.53
2022-08-09T05:55:39.575Z,7.55
2022-08-09T05:58:25.527Z,7.80
2022-08-09T06:01:15.948Z,6.93
2022-08-09T06:04:05.966Z,7.07
2022-08-09T06:06:51.945Z,8.02
2022-08-09T06:09:55.233Z,7.70
2022-08-09T06:12:43.495Z,8.30
2022-08-09T06:15:29.350Z,7.65
2022-08-09T06:18:17.547Z,7.97
2022-08-09T06:21:04.553Z,7.57
2022-08-09T06:23:57.962Z,7.93
2022-08-09T06:26:47.707Z,6.72
2022-08-09T06:29:33.793Z,8.38
2022-08-09T06:33:13.539Z,8.50
2022-08-09T06:35:57.201Z,7.47
2022-08-09T06:38:50.294Z,7.30
2022-08-09T06:41:55.862Z,6.80
2022-08-09T06:44:44.852Z,7.53
2022-08-09T06:50:28.220Z,7.75
2022-08-09T06:53:17.857Z,7.65
2022-08-09T06:56:07.389Z,6.95
2022-08-09T07:00:49.341Z,6.03
2022-08-09T07:02:04.371Z,6.10
2022-08-09T07:04:50.826Z,7.05
2022-08-09T07:07:59.662Z,7.28
2022-08-09T07:10:43.460Z,6.38
2022-08-09T07:13:45.369Z,7.47
2022-08-09T07:16:41.447Z,7.63
2022-08-09T07:19:35.017Z,6.47
2022-08-09T07:22:27.432Z,5.82
2022-08-09T07:25:21.826Z,7.28
2022-08-09T07:28:08.164Z,6.78
2022-08-09T07:30:55.334Z,7.07
2022-08-09T07:33:52.708Z,7.10
2022-08-09T07:36:41.754Z,7.18
2022-08-09T07:39:40.286Z,7.72
2022-08-09T07:42:32.687Z,7.40
2022-08-09T07:45:38.169Z,6.05
2022-08-09T07:48:30.801Z,7.53
2022-08-09T07:52:05.714Z,5.40
2022-08-09T07:54:27.999Z,6.35
2022-08-09T07:57:16.294Z,6.30
2022-08-09T08:00:03.043Z,6.72
2022-08-09T08:02:59.268Z,6.65
2022-08-09T08:05:57.580Z,7.07
2022-08-09T08:09:03.129Z,5.63
2022-08-09T08:12:10.049Z,7.40
2022-08-09T08:14:55.009Z,6.75
2022-08-09T08:17:54.547Z,6.80
2022-08-09T08:20:42.888Z,6.25
2022-08-09T08:23:29.152Z,7.43
2022-08-09T08:26:26.208Z,7.07
2022-08-09T08:29:13.046Z,6.68
2022-08-09T08:32:03.705Z,5.55
2022-08-09T08:34:51.812Z,7.47
2022-08-09T08:37:41.483Z,6.53
2022-08-09T08:40:43.771Z,5.32
2022-08-09T08:43:36.221Z,6.68
2022-08-09T08:46:33.666Z,5.97
2022-08-09T08:49:38.662Z,6.78
2022-08-09T08:52:57.509Z,6.45
2022-08-09T08:55:41.729Z,6.30
2022-08-09T08:58:29.958Z,5.38
2022-08-09T09:01:20.826Z,7.32
2022-08-09T09:04:12.506Z,7.88
2022-08-09T09:07:03.135Z,5.80
2022-08-09T09:09:59.549Z,5.75
2022-08-09T09:12:49.874Z,5.72
2022-08-09T09:15:38.626Z,6.47
2022-08-09T09:18:26.386Z,6.80
2022-08-09T09:21:16.150Z,6.28
2022-08-09T09:24:20.531Z,6.45
2022-08-09T09:27:22.101Z,5.75
2022-08-09T09:30:31.525Z,5.22
2022-08-09T09:33:23.775Z,4.90
2022-08-09T09:36:20.174Z,4.95
2022-08-09T09:39:09.820Z,5.03
2022-08-09T09:41:57.254Z,4.82
2022-08-09T09:44:43.241Z,4.93
2022-08-09T09:47:32.477Z,5.00
2022-08-09T09:50:22.877Z,4.70
2022-08-09T09:53:18.185Z,5.15
2022-08-09T09:56:06.104Z,4.15
2022-08-09T09:58:53.509Z,5.45
2022-08-09T10:01:43.065Z,4.75
2022-08-09T10:04:30.808Z,5.15
2022-08-09T10:07:26.283Z,5.10
2022-08-09T10:10:12.446Z,4.50
2022-08-09T10:13:00.028Z,4.68
2022-08-09T10:16:55.091Z,4.55
2022-08-09T10:18:59.886Z,4.97
2022-08-09T10:21:50.297Z,5.40
2022-08-09T10:24:36.683Z,4.95
2022-08-09T10:27:26.153Z,5.03
2022-08-09T10:34:05.235Z,4.90
2022-08-09T10:36:33.363Z,4.82
2022-08-09T10:39:23.384Z,4.65
2022-08-09T10:42:16.028Z,5.10
2022-08-09T10:45:12.083Z,4.57
2022-08-09T10:48:26.428Z,4.25
2022-08-09T10:51:48.018Z,4.85
2022-08-09T10:54:38.982Z,4.90
2022-08-09T10:57:37.519Z,5.75
2022-08-09T11:00:29.639Z,5.65
2022-08-09T11:03:49.932Z,4.78
2022-08-09T11:06:31.121Z,4.78
2022-08-09T11:09:19.443Z,4.30
2022-08-09T11:12:26.652Z,5.30
2022-08-09T11:15:19.123Z,4.45
2022-08-09T11:18:04.943Z,4.63
2022-08-09T11:20:53.103Z,4.35
2022-08-09T11:24:01.681Z,4.72
2022-08-09T11:26:54.828Z,4.88
2022-08-09T11:30:05.865Z,4.20
2022-08-09T11:33:08.045Z,4.50
2022-08-09T11:36:01.504Z,4.43
2022-08-09T11:39:01.371Z,4.57
2022-08-09T11:41:47.202Z,5.25
2022-08-09T11:44:46.041Z,4.50
2022-08-09T11:47:53.705Z,4.97
2022-08-09T11:52:54.012Z,4.40
2022-08-09T11:54:27.453Z,4.97
2022-08-09T11:57:56.392Z,4.68
2022-08-09T12:01:03.501Z,4.53
2022-08-09T12:04:00.287Z,4.53
2022-08-09T12:06:56.274Z,4.32
2022-08-09T12:09:50.494Z,4.63
2022-08-09T12:12:47.897Z,4.93
2022-08-09T12:15:49.903Z,4.88
2022-08-09T12:18:42.423Z,4.30
2022-08-09T12:21:38.740Z,5.03
2022-08-09T12:24:25.658Z,4.50
2022-08-09T12:28:58.299Z,4.68
2022-08-09T12:30:39.164Z,4.60
2022-08-09T12:33:35.373Z,4.60
2022-08-09T12:36:33.966Z,4.70
2022-08-09T12:39:22.367Z,4.40
2022-08-09T12:42:10.468Z,4.50
2022-08-09T12:45:07.145Z,4.47
2022-08-09T12:48:27.810Z,4.75
2022-08-09T12:51:52.225Z,4.60
2022-08-09T12:54:24.800Z,4.65
2022-08-09T12:57:12.058Z,4.00
2022-08-09T13:00:16.572Z,4.75
2022-08-09T13:03:04.900Z,4.60
2022-08-09T13:06:14.324Z,5.18
2022-08-09T13:09:06.809Z,4.65
2022-08-09T13:12:01.627Z,4.90
2022-08-09T13:14:53.850Z,4.15
2022-08-09T13:17:58.669Z,4.93
2022-08-09T13:21:04.293Z,4.93
2022-08-09T13:24:42.110Z,4.80
2022-08-09T13:27:23.762Z,4.60
2022-08-09T13:30:50.597Z,4.75
2022-08-09T13:33:52.174Z,4.35
2022-08-09T13:36:42.152Z,4.95
2022-08-09T13:41:19.029Z,4.78
2022-08-09T13:42:36.431Z,4.75
2022-08-09T13:46:07.387Z,4.78
2022-08-09T13:48:30.128Z,4.43
2022-08-09T13:51:16.199Z,4.15
2022-08-09T13:54:01.877Z,4.32
2022-08-09T13:56:48.240Z,4.32
2022-08-09T13:59:37.088Z,4.55
2022-08-09T14:02:27.814Z,4.72
2022-08-09T14:05:57.175Z,4.30
2022-08-09T14:08:19.428Z,4.63
2022-08-09T14:11:09.967Z,4.72
2022-08-09T14:14:22.195Z,3.90
2022-08-09T14:17:09.141Z,4.82
2022-08-09T14:19:58.630Z,4.55
2022-08-09T14:22:44.926Z,3.80
2022-08-09T14:25:31.426Z,4.22
2022-08-09T14:28:30.180Z,3.95
2022-08-09T14:31:16.985Z,4.60
2022-08-09T14:34:04.288Z,3.97
2022-08-09T14:36:54.401Z,4.53
2022-08-09T14:39:47.764Z,4.07
2022-08-09T14:42:34.618Z,3.92
2022-08-09T14:46:54.078Z,3.97
2022-08-09T14:48:26.955Z,3.80
2022-08-09T14:51:14.186Z,4.10
2022-08-09T14:54:01.187Z,3.65
2022-08-09T14:56:57.426Z,3.78
2022-08-09T14:59:48.472Z,3.50
2022-08-09T15:02:34.878Z,3.30
2022-08-09T15:05:20.977Z,3.50
2022-08-09T15:08:10.392Z,3.63
2022-08-09T15:11:00.328Z,3.83
2022-08-09T15:13:48.155Z,3.40
2022-08-09T15:16:43.040Z,3.50
2022-08-09T15:19:35.991Z,3.30
2022-08-09T15:22:22.095Z,3.50
2022-08-09T15:25:11.753Z,3.80
2022-08-09T15:28:01.482Z,3.90
2022-08-09T15:30:56.021Z,3.40
2022-08-09T15:34:27.490Z,3.90
2022-08-09T15:36:56.084Z,3.97
2022-08-09T15:39:53.663Z,4.00
2022-08-09T15:42:42.695Z,3.70
2022-08-09T15:45:29.873Z,3.70
2022-08-09T15:48:29.285Z,3.60
2022-08-09T15:51:44.647Z,3.28
2022-08-09T15:54:33.465Z,3.53
2022-08-09T15:57:35.532Z,3.72
2022-08-09T16:00:32.333Z,3.35
2022-08-09T16:03:29.752Z,3.30
2022-08-09T16:06:32.374Z,3.90
2022-08-09T16:09:51.585Z,3.47
2022-08-09T16:12:31.038Z,3.65
2022-08-09T16:16:11.000Z,3.65
2022-08-09T16:18:24.151Z,3.05
2022-08-09T16:21:11.537Z,3.30
2022-08-09T16:24:02.450Z,3.50
2022-08-09T16:26:49.025Z,3.30
2022-08-09T16:29:37.605Z,3.47
2022-08-09T16:32:55.660Z,3.25
2022-08-09T16:35:57.506Z,3.35
2022-08-09T16:38:51.419Z,3.42
2022-08-09T16:42:03.741Z,2.83
2022-08-09T16:44:46.845Z,3.22
2022-08-09T16:48:39.963Z,3.38
2022-08-09T16:50:58.903Z,3.38
2022-08-09T16:54:16.454Z,3.65
2022-08-09T16:56:52.697Z,3.05
2022-08-09T16:59:43.886Z,3.10
2022-08-09T17:02:31.036Z,2.80
2022-08-09T17:05:19.825Z,2.72
2022-08-09T17:08:43.015Z,3.00
2022-08-09T17:11:12.529Z,3.10
2022-08-09T17:14:02.302Z,2.85
2022-08-09T17:16:48.410Z,2.60
2022-08-09T17:19:47.423Z,2.97
2022-08-09T17:22:49.854Z,2.60
2022-08-09T17:25:38.550Z,3.20
2022-08-09T17:28:26.982Z,2.50
2022-08-09T17:31:15.968Z,2.85
2022-08-09T17:34:02.759Z,2.90
2022-08-09T17:36:53.337Z,3.00
2022-08-09T17:39:52.125Z,2.90
2022-08-09T17:42:42.661Z,2.65
2022-08-09T17:45:42.065Z,2.70
2022-08-09T17:48:52.198Z,3.00
2022-08-09T17:51:42.947Z,2.80
2022-08-09T17:54:32.228Z,2.70
2022-08-09T17:58:02.119Z,2.75
2022-08-09T18:00:33.557Z,2.70
2022-08-09T18:03:35.547Z,2.90
2022-08-09T18:06:30.791Z,2.97
2022-08-09T18:09:18.976Z,2.72
2022-08-09T18:12:17.684Z,2.50
2022-08-09T18:15:09.095Z,2.42
2022-08-09T18:18:08.111Z,2.20
2022-08-09T18:21:19.090Z,2.22
2022-08-09T18:24:12.239Z,2.35
2022-08-09T18:27:01.465Z,2.30
2022-08-09T18:30:37.726Z,2.65
2022-08-09T18:32:54.983Z,2.10
2022-08-09T18:35:58.650Z,2.35
2022-08-09T18:38:46.701Z,2.30
2022-08-09T18:41:42.328Z,2.38
2022-08-09T18:44:40.314Z,2.53
2022-08-09T18:47:32.737Z,2.50
2022-08-09T18:50:33.689Z,2.42
2022-08-09T18:53:22.391Z,2.72
2022-08-09T18:56:10.660Z,2.40
2022-08-09T18:58:57.091Z,2.58
2022-08-09T19:01:46.313Z,2.80
2022-08-09T19:04:34.959Z,2.67
2022-08-09T19:07:22.384Z,2.78
2022-08-09T19:10:14.044Z,2.83
2022-08-09T19:13:20.979Z,2.67
2022-08-09T19:16:13.721Z,2.80
2022-08-09T19:19:21.493Z,2.55
2022-08-09T19:22:15.234Z,3.05
2022-08-09T19:25:42.507Z,2.90
2022-08-09T19:28:15.584Z,3.08
2022-08-09T19:31:02.649Z,2.78
2022-08-09T19:33:58.220Z,2.70
2022-08-09T19:36:43.968Z,3.15
2022-08-09T19:39:43.012Z,3.38
2022-08-09T19:42:37.555Z,3.53
2022-08-09T19:45:24.992Z,3.47
2022-08-09T19:48:45.441Z,3.33
2022-08-09T19:51:31.605Z,3.38
2022-08-09T19:54:25.115Z,3.00
2022-08-09T19:57:11.345Z,3.33
2022-08-09T20:00:07.032Z,2.90
2022-08-09T20:04:17.768Z,3.70
2022-08-09T20:06:04.096Z,4.30
2022-08-09T20:08:56.840Z,4.20
2022-08-09T20:14:43.836Z,3.63
2022-08-09T20:17:41.526Z,3.88
2022-08-09T20:20:37.698Z,3.45
2022-08-09T20:23:23.904Z,3.78
2022-08-09T20:26:13.280Z,3.38
2022-08-09T20:29:01.035Z,3.42
2022-08-09T20:32:29.207Z,3.80
2022-08-09T20:35:02.541Z,3.80
2022-08-09T20:38:21.049Z,3.90
2022-08-09T20:40:55.917Z,3.92
2022-08-09T20:43:44.882Z,4.03
2022-08-09T20:46:43.302Z,3.45
2022-08-09T20:49:31.429Z,3.70
2022-08-09T20:52:22.661Z,3.60
2022-08-09T20:55:11.514Z,3.55
2022-08-09T20:58:08.202Z,3.95
2022-08-09T21:01:33.023Z,3.95
2022-08-09T21:05:53.958Z,3.83
2022-08-09T21:07:20.171Z,3.42
2022-08-09T21:10:16.537Z,4.00
2022-08-09T21:13:02.451Z,3.40
2022-08-09T21:15:51.802Z,3.30
2022-08-09T21:20:04.350Z,3.97
2022-08-09T21:21:53.754Z,3.80
2022-08-09T21:25:02.047Z,4.00
2022-08-09T21:27:51.043Z,3.47
2022-08-09T21:30:51.540Z,3.95
2022-08-09T21:33:37.881Z,3.53
2022-08-09T21:36:28.054Z,3.78
2022-08-09T21:39:21.865Z,3.97
2022-08-09T21:42:10.375Z,3.55
2022-08-09T21:44:56.820Z,3.35
2022-08-09T21:47:44.798Z,3.75
2022-08-09T21:50:38.856Z,3.97
2022-08-09T21:53:40.206Z,3.55
2022-08-09T21:56:43.073Z,3.50
2022-08-09T21:59:42.879Z,3.63
2022-08-09T22:02:36.140Z,3.67
2022-08-09T22:05:23.750Z,3.80
2022-08-09T22:08:25.524Z,3.70
2022-08-09T22:12:09.222Z,3.85
2022-08-09T22:14:16.349Z,4.50
2022-08-09T22:17:04.555Z,3.90
2022-08-09T22:19:58.762Z,3.90
2022-08-09T22:22:47.316Z,3.80
2022-08-09T22:26:06.159Z,4.07
2022-08-09T22:28:43.616Z,4.15
2022-08-09T22:31:50.623Z,3.78
2022-08-09T22:34:42.547Z,4.30
2022-08-09T22:37:28.166Z,4.07
2022-08-09T22:43:16.131Z,3.78
2022-08-09T22:48:11.845Z,4.00
2022-08-09T22:49:17.893Z,4.63
2022-08-09T22:52:04.130Z,3.97
2022-08-09T22:54:50.473Z,4.63
2022-08-09T22:57:36.709Z,4.07
2022-08-09T23:00:42.610Z,4.35
2022-08-09T23:04:02.789Z,4.25
2022-08-09T23:06:52.956Z,4.38
2022-08-09T23:09:39.794Z,4.15
2022-08-09T23:12:25.435Z,4.20
2022-08-09T23:15:11.536Z,4.40
2022-08-09T23:17:57.822Z,4.25
2022-08-09T23:20:45.704Z,4.30
2022-08-09T23:23:31.569Z,4.10
2022-08-09T23:26:17.354Z,4.43
2022-08-09T23:29:04.952Z,4.13
2022-08-09T23:31:54.341Z,4.15
2022-08-09T23:34:40.106Z,4.22
2022-08-09T23:37:25.956Z,4.35
2022-08-09T23:40:12.255Z,4.20
2022-08-09T23:42:58.314Z,4.47
2022-08-09T23:45:44.183Z,4.13
2022-08-09T23:48:29.779Z,4.18
2022-08-09T23:51:15.340Z,4.47
2022-08-09T23:54:02.971Z,4.72
2022-08-09T23:56:54.683Z,4.40
